Time;durP1;ratioP1;P1;durP2;ratioP2;P2;SDS_P1;SDS_P2;PMS_P1;PMS_P2;Temp;Humidity;BMP_temperature;BMP_pressure;BME280_temperature;BME280_humidity;BME280_pressure;Samples;Min_cycle;Max_cycle;Signal;HPM_P1;HPM_P2
2022/05/05 00:01:43;;;;;;;;;;;21.80;44.20;;;;;;482575;246;1362;-40
2022/05/05 00:03:45;;;;;;;;;;;21.80;44.20;;;;;;482198;246;1077;-40
2022/05/05 00:05:46;;;;;;;;;;;21.80;44.20;;;;;;482564;246;1140;-40
2022/05/05 00:07:48;;;;;;;;;;;21.80;44.20;;;;;;482210;246;1485;-40
2022/05/05 00:09:49;;;;;;;;;;;21.80;44.20;;;;;;482542;246;1109;-39
2022/05/05 00:14:27;;;;;;;;;;;21.80;44.20;;;;;;482645;247;2198;-40
2022/05/05 00:16:27;;;;;;;;;;;21.80;44.20;;;;;;482255;246;2418;-40
2022/05/05 00:18:28;;;;;;;;;;;21.80;44.20;;;;;;482642;246;1056;-40
2022/05/05 00:20:30;;;;;;;;;;;21.80;44.20;;;;;;482245;246;1332;-40
2022/05/05 00:22:31;;;;;;;;;;;21.80;44.20;;;;;;482289;246;1109;-40
2022/05/05 00:24:32;;;;;;;;;;;21.80;44.20;;;;;;482696;246;1589;-40
2022/05/05 00:26:34;;;;;;;;;;;21.80;44.20;;;;;;482381;246;1341;-40
2022/05/05 00:28:35;;;;;;;;;;;21.90;44.20;;;;;;482300;246;1101;-40
2022/05/05 00:30:36;;;;;;;;;;;21.90;44.20;;;;;;482286;246;1270;-40
2022/05/05 00:32:38;;;;;;;;;;;21.90;44.20;;;;;;482116;246;1561;-40
2022/05/05 00:34:39;;;;;;;;;;;21.80;44.30;;;;;;482425;246;2110;-40
2022/05/05 00:36:40;;;;;;;;;;;21.80;44.20;;;;;;482207;246;1290;-40
2022/05/05 00:38:42;;;;;;;;;;;21.80;44.20;;;;;;482723;246;1071;-40
2022/05/05 00:40:43;;;;;;;;;;;21.80;44.20;;;;;;482369;246;1260;-40
2022/05/05 00:42:45;;;;;;;;;;;21.80;44.20;;;;;;482235;246;1159;-40
2022/05/05 00:44:46;;;;;;;;;;;21.80;44.30;;;;;;482212;246;1324;-40
2022/05/05 00:46:47;;;;;;;;;;;21.80;44.30;;;;;;482341;246;1203;-40
2022/05/05 00:48:50;;;;;;;;;;;21.80;44.30;;;;;;482643;246;1243;-40
2022/05/05 00:50:50;;;;;;;;;;;21.70;44.30;;;;;;482119;246;2404;-40
2022/05/05 00:52:51;;;;;;;;;;;21.80;44.20;;;;;;482247;246;1027;-40
2022/05/05 00:54:53;;;;;;;;;;;21.80;44.20;;;;;;482690;246;2129;-40
2022/05/05 00:56:54;;;;;;;;;;;21.80;44.20;;;;;;482184;246;1337;-39
2022/05/05 00:58:55;;;;;;;;;;;21.80;44.20;;;;;;482676;246;1072;-39
2022/05/05 01:00:57;;;;;;;;;;;21.80;44.20;;;;;;482362;246;1242;-40
2022/05/05 01:02:58;;;;;;;;;;;21.90;44.20;;;;;;482153;246;1058;-40
2022/05/05 01:04:59;;;;;;;;;;;21.90;44.20;;;;;;482652;246;1092;-40
2022/05/05 01:07:01;;;;;;;;;;;21.80;44.10;;;;;;482450;246;1057;-40
2022/05/05 01:09:02;;;;;;;;;;;21.80;44.20;;;;;;482177;246;1100;-40
2022/05/05 01:11:03;;;;;;;;;;;21.80;44.10;;;;;;482196;246;1241;-40
2022/05/05 01:13:05;;;;;;;;;;;21.80;44.10;;;;;;482684;246;1018;-40
2022/05/05 01:15:06;;;;;;;;;;;21.90;44.10;;;;;;482253;246;2185;-40
2022/05/05 01:17:07;;;;;;;;;;;21.90;44.10;;;;;;482493;246;1138;-40
2022/05/05 01:19:09;;;;;;;;;;;21.90;44.20;;;;;;482269;246;1092;-40
2022/05/05 01:21:10;;;;;;;;;;;21.80;44.10;;;;;;482438;246;1062;-40
2022/05/05 01:23:12;;;;;;;;;;;21.80;44.10;;;;;;482233;246;1060;-40
2022/05/05 01:29:52;;;;;;;;;;;21.80;44.20;;;;;;482712;247;1055;-40
2022/05/05 01:31:53;;;;;;;;;;;21.80;44.10;;;;;;482307;246;1241;-39
2022/05/05 01:33:54;;;;;;;;;;;21.80;44.20;;;;;;482348;246;1095;-40
2022/05/05 01:35:55;;;;;;;;;;;21.90;44.20;;;;;;482627;246;2181;-39
2022/05/05 01:37:57;;;;;;;;;;;21.90;44.10;;;;;;482412;246;1252;-40
2022/05/05 01:39:58;;;;;;;;;;;21.80;44.10;;;;;;482430;246;1150;-40
2022/05/05 01:42:00;;;;;;;;;;;21.80;44.20;;;;;;482458;246;1607;-40
2022/05/05 01:44:01;;;;;;;;;;;21.80;44.20;;;;;;482256;246;1102;-40
2022/05/05 01:46:02;;;;;;;;;;;21.80;44.20;;;;;;482464;246;1303;-40
2022/05/05 01:48:04;;;;;;;;;;;21.80;44.20;;;;;;482255;246;1243;-40
2022/05/05 01:50:05;;;;;;;;;;;21.80;44.20;;;;;;482702;246;1227;-40
2022/05/05 01:52:06;;;;;;;;;;;21.80;44.20;;;;;;482115;246;1261;-40
2022/05/05 01:54:08;;;;;;;;;;;21.80;44.20;;;;;;482429;246;1234;-40
2022/05/05 01:56:11;;;;;;;;;;;21.80;44.30;;;;;;482667;246;2118;-40
2022/05/05 01:58:11;;;;;;;;;;;21.80;44.20;;;;;;482153;247;1340;-40
2022/05/05 02:00:12;;;;;;;;;;;21.90;44.20;;;;;;482371;246;1168;-39
2022/05/05 02:02:13;;;;;;;;;;;21.80;44.30;;;;;;482604;246;1382;-39
2022/05/05 02:04:15;;;;;;;;;;;21.80;44.30;;;;;;482600;246;1051;-39
2022/05/05 02:06:16;;;;;;;;;;;21.80;44.30;;;;;;482165;246;1177;-40
2022/05/05 02:08:17;;;;;;;;;;;21.80;44.20;;;;;;482333;246;1214;-40
2022/05/05 02:10:20;;;;;;;;;;;21.80;44.10;;;;;;482441;246;1100;-40
2022/05/05 02:12:21;;;;;;;;;;;21.80;44.20;;;;;;482269;246;1360;-39
2022/05/05 02:14:23;;;;;;;;;;;21.80;44.20;;;;;;482576;246;1090;-39
2022/05/05 02:16:23;;;;;;;;;;;21.90;44.10;;;;;;482032;247;2293;-39
2022/05/05 02:18:25;;;;;;;;;;;21.90;44.10;;;;;;482205;246;1113;-40
2022/05/05 02:20:26;;;;;;;;;;;21.80;44.10;;;;;;482125;246;1444;-40
2022/05/05 02:22:27;;;;;;;;;;;21.90;44.20;;;;;;482079;246;1310;-40
2022/05/05 02:24:29;;;;;;;;;;;21.90;44.20;;;;;;482427;246;1079;-39
2022/05/05 02:26:30;;;;;;;;;;;21.90;44.10;;;;;;482278;246;1192;-40
2022/05/05 02:28:32;;;;;;;;;;;21.90;44.10;;;;;;482122;246;1073;-40
2022/05/05 02:30:33;;;;;;;;;;;21.90;44.10;;;;;;482603;246;1545;-40
2022/05/05 02:32:35;;;;;;;;;;;21.90;44.10;;;;;;482298;246;1214;-40
2022/05/05 02:34:36;;;;;;;;;;;21.90;44.10;;;;;;482558;246;1073;-40
2022/05/05 02:38:56;;;;;;;;;;;21.80;44.10;;;;;;482309;247;1231;-40
2022/05/05 02:40:58;;;;;;;;;;;21.80;44.10;;;;;;482136;246;1356;-40
2022/05/05 02:42:59;;;;;;;;;;;21.80;44.10;;;;;;482378;246;1081;-40
2022/05/05 02:45:00;;;;;;;;;;;21.80;44.20;;;;;;482276;246;1058;-40
2022/05/05 02:47:02;;;;;;;;;;;21.80;44.20;;;;;;482264;246;1202;-39
2022/05/05 02:49:03;;;;;;;;;;;21.80;44.20;;;;;;482312;246;2232;-40
2022/05/05 02:51:04;;;;;;;;;;;21.80;44.20;;;;;;482196;246;1140;-40
2022/05/05 02:54:47;;;;;;;;;;;21.80;44.10;;;;;;482097;246;1074;-40
2022/05/05 02:55:07;;;;;;;;;;;21.90;44.20;;;;;;481172;247;2125;-40
2022/05/05 02:57:08;;;;;;;;;;;21.80;44.10;;;;;;482136;246;1352;-40
2022/05/05 02:59:10;;;;;;;;;;;21.90;44.10;;;;;;482405;246;1363;-40
2022/05/05 03:01:11;;;;;;;;;;;21.90;44.10;;;;;;482380;246;1406;-40
2022/05/05 03:03:12;;;;;;;;;;;21.90;44.10;;;;;;482305;246;1171;-40
2022/05/05 03:05:14;;;;;;;;;;;21.90;44.00;;;;;;482560;246;1198;-40
2022/05/05 03:07:16;;;;;;;;;;;21.90;44.20;;;;;;482490;246;1336;-39
2022/05/05 03:09:18;;;;;;;;;;;21.80;44.10;;;;;;482566;246;1100;-39
2022/05/05 03:11:18;;;;;;;;;;;21.80;44.20;;;;;;482421;247;1915;-40
2022/05/05 03:13:20;;;;;;;;;;;21.80;44.20;;;;;;482253;246;1195;-40
2022/05/05 03:15:21;;;;;;;;;;;21.80;44.20;;;;;;482205;246;2200;-40
2022/05/05 03:17:22;;;;;;;;;;;21.90;44.10;;;;;;482245;246;1706;-40
2022/05/05 03:19:24;;;;;;;;;;;21.90;44.10;;;;;;482232;246;1129;-40
2022/05/05 03:21:25;;;;;;;;;;;21.80;44.10;;;;;;482399;246;1491;-39
2022/05/05 03:23:27;;;;;;;;;;;21.90;44.10;;;;;;482148;246;1105;-39
2022/05/05 03:25:28;;;;;;;;;;;21.80;44.10;;;;;;482223;246;1433;-40
2022/05/05 03:27:29;;;;;;;;;;;21.80;44.10;;;;;;482194;246;1690;-40
2022/05/05 03:29:31;;;;;;;;;;;21.90;44.00;;;;;;482201;246;985;-40
2022/05/05 03:31:32;;;;;;;;;;;21.90;44.10;;;;;;482409;246;1416;-40
2022/05/05 03:33:34;;;;;;;;;;;21.90;44.10;;;;;;482123;246;1197;-40
2022/05/05 03:35:35;;;;;;;;;;;21.80;44.10;;;;;;482151;246;2137;-40
2022/05/05 03:37:36;;;;;;;;;;;21.90;44.10;;;;;;482546;246;1588;-40
2022/05/05 03:39:38;;;;;;;;;;;21.80;44.10;;;;;;482568;246;1072;-39
2022/05/05 03:41:39;;;;;;;;;;;21.80;44.30;;;;;;482142;246;1250;-39
2022/05/05 03:43:40;;;;;;;;;;;21.80;44.10;;;;;;482159;246;1266;-39
2022/05/05 03:45:42;;;;;;;;;;;21.80;44.10;;;;;;482138;246;1088;-39
2022/05/05 03:47:43;;;;;;;;;;;21.80;44.10;;;;;;482167;246;1210;-39
2022/05/05 03:49:44;;;;;;;;;;;21.80;44.10;;;;;;482330;246;1060;-39
2022/05/05 03:51:46;;;;;;;;;;;21.80;44.10;;;;;;482044;246;1291;-39
2022/05/05 03:53:47;;;;;;;;;;;21.80;44.10;;;;;;482622;246;1085;-39
2022/05/05 03:55:48;;;;;;;;;;;21.80;44.10;;;;;;482103;246;2197;-40
2022/05/05 03:57:50;;;;;;;;;;;21.80;44.20;;;;;;482133;246;1337;-39
2022/05/05 03:59:51;;;;;;;;;;;21.80;44.10;;;;;;482229;246;1135;-40
2022/05/05 04:01:52;;;;;;;;;;;21.80;44.10;;;;;;482303;246;1349;-40
2022/05/05 04:03:53;;;;;;;;;;;21.80;44.10;;;;;;482186;246;1075;-40
2022/05/05 04:05:55;;;;;;;;;;;21.90;44.10;;;;;;482153;246;1379;-39
2022/05/05 04:07:56;;;;;;;;;;;21.80;44.10;;;;;;482097;246;1203;-39
2022/05/05 04:09:57;;;;;;;;;;;21.80;44.20;;;;;;482248;246;1122;-39
2022/05/05 04:11:59;;;;;;;;;;;21.80;44.10;;;;;;482268;246;2195;-39
2022/05/05 04:14:00;;;;;;;;;;;21.80;44.10;;;;;;482390;246;1373;-39
2022/05/05 04:16:01;;;;;;;;;;;21.90;44.20;;;;;;482115;246;2201;-40
2022/05/05 04:18:03;;;;;;;;;;;21.90;44.10;;;;;;482031;246;1448;-40
2022/05/05 04:20:04;;;;;;;;;;;21.80;44.20;;;;;;482367;246;1096;-40
2022/05/05 04:22:05;;;;;;;;;;;21.80;44.20;;;;;;482046;246;1223;-40
2022/05/05 04:24:07;;;;;;;;;;;21.80;44.10;;;;;;482051;246;1094;-40
2022/05/05 04:26:08;;;;;;;;;;;21.80;44.10;;;;;;482175;246;1194;-39
2022/05/05 04:28:09;;;;;;;;;;;21.80;44.10;;;;;;482092;246;1086;-40
2022/05/05 04:30:10;;;;;;;;;;;21.80;44.10;;;;;;481963;246;1074;-40
2022/05/05 04:32:12;;;;;;;;;;;21.90;44.10;;;;;;481858;246;1211;-40
2022/05/05 04:34:13;;;;;;;;;;;21.90;44.10;;;;;;482175;246;1322;-40
2022/05/05 04:36:14;;;;;;;;;;;21.90;44.00;;;;;;482447;246;2185;-40
2022/05/05 04:38:16;;;;;;;;;;;21.90;44.00;;;;;;482428;246;1342;-40
2022/05/05 04:40:17;;;;;;;;;;;21.80;44.10;;;;;;482081;246;1070;-40
2022/05/05 04:42:19;;;;;;;;;;;21.80;44.10;;;;;;482080;246;1488;-40
2022/05/05 04:44:20;;;;;;;;;;;21.80;44.20;;;;;;482182;246;1099;-40
2022/05/05 04:46:21;;;;;;;;;;;21.90;44.20;;;;;;482015;246;1383;-40
2022/05/05 04:48:23;;;;;;;;;;;21.80;44.10;;;;;;482075;246;1172;-40
2022/05/05 04:50:24;;;;;;;;;;;21.90;44.10;;;;;;482144;246;1078;-40
2022/05/05 04:52:25;;;;;;;;;;;21.80;44.10;;;;;;481969;246;1209;-40
2022/05/05 04:54:27;;;;;;;;;;;21.80;44.20;;;;;;482204;246;1094;-40
2022/05/05 04:56:28;;;;;;;;;;;21.80;44.10;;;;;;482136;246;2118;-40
2022/05/05 04:58:29;;;;;;;;;;;21.90;44.10;;;;;;482000;246;1080;-40
2022/05/05 05:00:31;;;;;;;;;;;21.90;44.00;;;;;;482228;246;1355;-40
2022/05/05 05:02:32;;;;;;;;;;;21.90;44.00;;;;;;481943;246;1235;-40
2022/05/05 05:04:33;;;;;;;;;;;21.90;44.00;;;;;;481911;246;1177;-40
2022/05/05 05:06:34;;;;;;;;;;;21.90;44.00;;;;;;481854;246;1461;-40
2022/05/05 05:08:36;;;;;;;;;;;21.90;44.00;;;;;;482105;246;1092;-39
2022/05/05 05:10:37;;;;;;;;;;;21.90;44.00;;;;;;481901;246;1174;-40
2022/05/05 05:12:39;;;;;;;;;;;21.90;44.00;;;;;;481827;246;1170;-40
2022/05/05 05:14:40;;;;;;;;;;;21.80;44.00;;;;;;481914;246;1107;-39
2022/05/05 05:16:41;;;;;;;;;;;21.90;44.10;;;;;;481935;246;2200;-40
2022/05/05 05:18:43;;;;;;;;;;;21.80;44.10;;;;;;481922;246;1216;-40
2022/05/05 05:20:45;;;;;;;;;;;21.90;44.10;;;;;;481785;246;1177;-40
2022/05/05 05:22:46;;;;;;;;;;;21.80;44.10;;;;;;481880;246;1226;-40
2022/05/05 05:24:47;;;;;;;;;;;21.90;44.10;;;;;;481806;246;1201;-40
2022/05/05 05:26:48;;;;;;;;;;;21.90;44.10;;;;;;481902;246;1073;-40
2022/05/05 05:28:50;;;;;;;;;;;21.90;44.10;;;;;;481894;246;1088;-40
2022/05/05 05:30:51;;;;;;;;;;;21.90;44.10;;;;;;481742;246;1096;-40
2022/05/05 05:32:52;;;;;;;;;;;21.90;44.00;;;;;;481835;246;1388;-39
2022/05/05 05:34:54;;;;;;;;;;;21.90;44.00;;;;;;481778;246;1171;-40
2022/05/05 05:36:55;;;;;;;;;;;21.90;44.00;;;;;;481806;246;2130;-40
2022/05/05 05:38:57;;;;;;;;;;;21.90;44.10;;;;;;481903;246;1360;-39
2022/05/05 05:40:58;;;;;;;;;;;21.90;44.10;;;;;;481963;246;1231;-39
2022/05/05 05:42:59;;;;;;;;;;;21.90;44.00;;;;;;481698;246;1215;-40
2022/05/05 05:45:01;;;;;;;;;;;21.90;44.00;;;;;;481705;246;1202;-40
2022/05/05 05:47:02;;;;;;;;;;;21.80;44.10;;;;;;481752;246;1361;-40
2022/05/05 05:49:05;;;;;;;;;;;21.90;44.00;;;;;;481853;246;1273;-39
2022/05/05 05:51:05;;;;;;;;;;;21.90;44.00;;;;;;481719;247;2335;-39
2022/05/05 05:53:06;;;;;;;;;;;21.90;44.00;;;;;;481947;246;1220;-39
2022/05/05 05:55:07;;;;;;;;;;;21.90;44.00;;;;;;481839;246;1140;-39
2022/05/05 05:57:09;;;;;;;;;;;21.90;44.00;;;;;;481848;246;2208;-39
2022/05/05 05:59:10;;;;;;;;;;;21.90;44.00;;;;;;481829;246;1147;-39
2022/05/05 06:01:11;;;;;;;;;;;21.90;44.00;;;;;;481752;246;1252;-40
2022/05/05 06:05:32;;;;;;;;;;;21.90;44.10;;;;;;481856;247;1120;-39
2022/05/05 06:07:33;;;;;;;;;;;21.80;44.10;;;;;;481709;246;1272;-39
2022/05/05 06:09:34;;;;;;;;;;;21.90;44.00;;;;;;481963;246;1073;-39
2022/05/05 06:11:36;;;;;;;;;;;21.90;44.00;;;;;;481699;246;1163;-40
2022/05/05 06:13:37;;;;;;;;;;;21.90;44.00;;;;;;481721;246;1209;-40
2022/05/05 06:15:39;;;;;;;;;;;21.90;43.90;;;;;;481585;246;1382;-40
2022/05/05 06:17:40;;;;;;;;;;;21.90;43.90;;;;;;481878;246;2129;-40
2022/05/05 06:19:43;;;;;;;;;;;21.90;43.90;;;;;;481799;246;1180;-40
2022/05/05 06:21:43;;;;;;;;;;;21.90;43.90;;;;;;481649;246;2388;-40
2022/05/05 06:23:44;;;;;;;;;;;21.90;44.00;;;;;;481611;246;1110;-40
2022/05/05 06:25:46;;;;;;;;;;;21.90;44.00;;;;;;481706;246;1165;-39
2022/05/05 06:27:47;;;;;;;;;;;21.90;44.00;;;;;;481844;246;1189;-40
2022/05/05 06:29:48;;;;;;;;;;;21.90;44.00;;;;;;481588;246;1101;-40
2022/05/05 06:31:50;;;;;;;;;;;21.90;44.00;;;;;;481664;246;1370;-39
2022/05/05 06:33:51;;;;;;;;;;;21.90;44.10;;;;;;481706;247;1255;-39
2022/05/05 06:35:53;;;;;;;;;;;21.90;44.00;;;;;;481665;246;1321;-40
2022/05/05 06:37:54;;;;;;;;;;;21.90;43.90;;;;;;481464;246;2184;-39
2022/05/05 06:39:55;;;;;;;;;;;21.90;44.00;;;;;;481461;246;1220;-39
2022/05/05 06:41:57;;;;;;;;;;;21.90;44.00;;;;;;481377;246;1338;-40
2022/05/05 06:43:58;;;;;;;;;;;22.00;44.00;;;;;;481432;246;1205;-39
2022/05/05 06:45:59;;;;;;;;;;;21.90;44.00;;;;;;481381;246;1207;-40
2022/05/05 06:48:01;;;;;;;;;;;21.90;44.10;;;;;;481272;246;1104;-40
2022/05/05 06:50:02;;;;;;;;;;;21.90;44.10;;;;;;481279;246;1285;-39
2022/05/05 06:52:04;;;;;;;;;;;21.90;44.00;;;;;;481266;246;1086;-40
2022/05/05 06:54:05;;;;;;;;;;;22.00;44.10;;;;;;481356;246;1101;-40
2022/05/05 06:56:07;;;;;;;;;;;21.90;44.00;;;;;;481316;246;1339;-40
2022/05/05 06:58:08;;;;;;;;;;;21.90;44.00;;;;;;481436;246;2176;-40
2022/05/05 07:00:10;;;;;;;;;;;21.90;44.00;;;;;;481333;246;1157;-40
2022/05/05 07:02:12;;;;;;;;;;;21.90;44.10;;;;;;481239;246;1217;-40
2022/05/05 07:06:32;;;;;;;;;;;21.90;44.10;;;;;;481153;247;1173;-40
2022/05/05 07:10:52;;;;;;;;;;;22.00;44.10;;;;;;481296;246;1185;-39
2022/05/05 07:10:53;;;;;;;;;;;22.00;44.10;;;;;;479882;247;1297;-40
2022/05/05 07:12:55;;;;;;;;;;;22.00;44.00;;;;;;481193;246;1241;-39
2022/05/05 07:14:56;;;;;;;;;;;22.00;44.00;;;;;;481340;246;1246;-39
2022/05/05 07:16:58;;;;;;;;;;;22.00;44.00;;;;;;481386;246;2237;-39
2022/05/05 07:19:00;;;;;;;;;;;22.00;44.00;;;;;;481730;246;1276;-40
2022/05/05 07:21:01;;;;;;;;;;;22.00;44.00;;;;;;482094;246;1121;-39
2022/05/05 07:23:04;;;;;;;;;;;22.00;44.10;;;;;;481776;246;1285;-39
2022/05/05 07:25:04;;;;;;;;;;;22.00;44.10;;;;;;481218;246;2240;-40
2022/05/05 07:27:05;;;;;;;;;;;21.90;44.00;;;;;;481282;246;1488;-40
2022/05/05 07:29:07;;;;;;;;;;;22.00;44.10;;;;;;481994;246;1007;-40
2022/05/05 07:31:08;;;;;;;;;;;22.00;44.10;;;;;;481901;246;1036;-39
2022/05/05 07:33:09;;;;;;;;;;;21.90;44.10;;;;;;481536;247;1069;-40
2022/05/05 07:35:11;;;;;;;;;;;22.00;44.20;;;;;;481780;246;1109;-40
2022/05/05 07:37:12;;;;;;;;;;;22.00;44.20;;;;;;481477;246;2200;-39
2022/05/05 07:39:14;;;;;;;;;;;22.00;44.20;;;;;;480949;246;1193;-40
2022/05/05 07:41:15;;;;;;;;;;;22.00;44.20;;;;;;480121;246;1365;-40
2022/05/05 07:43:16;;;;;;;;;;;22.00;44.30;;;;;;479914;246;1295;-40
2022/05/05 07:45:18;;;;;;;;;;;21.90;44.20;;;;;;479996;246;1159;-40
2022/05/05 07:47:19;;;;;;;;;;;22.00;44.20;;;;;;479988;246;1374;-40
2022/05/05 07:49:21;;;;;;;;;;;22.00;44.20;;;;;;479940;243;1294;-40
2022/05/05 07:51:22;;;;;;;;;;;22.00;44.20;;;;;;479922;246;1473;-40
2022/05/05 07:53:23;;;;;;;;;;;22.00;44.20;;;;;;479995;246;1207;-40
2022/05/05 07:55:25;;;;;;;;;;;22.00;44.20;;;;;;479978;247;1460;-40
2022/05/05 07:57:26;;;;;;;;;;;22.00;44.20;;;;;;479913;246;2137;-39
2022/05/05 07:59:27;;;;;;;;;;;22.00;44.30;;;;;;479829;246;1231;-40
2022/05/05 08:01:29;;;;;;;;;;;22.00;44.20;;;;;;479819;246;1514;-40
2022/05/05 08:03:30;;;;;;;;;;;22.00;44.20;;;;;;480903;246;1473;-40
2022/05/05 08:05:32;;;;;;;;;;;22.00;44.30;;;;;;480507;246;1394;-40
2022/05/05 08:07:33;;;;;;;;;;;22.00;44.30;;;;;;480965;246;1387;-40
2022/05/05 08:09:34;;;;;;;;;;;22.00;44.20;;;;;;480545;246;1059;-40
2022/05/05 08:11:36;;;;;;;;;;;22.00;44.30;;;;;;480525;246;1251;-40
2022/05/05 08:13:37;;;;;;;;;;;22.00;44.30;;;;;;480570;246;1456;-40
2022/05/05 08:15:38;;;;;;;;;;;22.00;44.20;;;;;;481018;246;1245;-39
2022/05/05 08:17:39;;;;;;;;;;;22.00;44.20;;;;;;480382;246;2193;-39
2022/05/05 08:19:41;;;;;;;;;;;22.00;44.20;;;;;;480921;246;1149;-40
2022/05/05 08:21:42;;;;;;;;;;;22.00;44.30;;;;;;480937;246;1268;-39
2022/05/05 08:23:43;;;;;;;;;;;22.00;44.30;;;;;;480871;246;1023;-39
2022/05/05 08:30:23;;;;;;;;;;;22.00;44.30;;;;;;481111;247;1029;-39
2022/05/05 08:32:24;;;;;;;;;;;22.00;44.30;;;;;;480531;246;1112;-40
2022/05/05 08:34:25;;;;;;;;;;;22.00;44.30;;;;;;481683;246;1072;-40
2022/05/05 08:36:27;;;;;;;;;;;22.00;44.20;;;;;;481761;246;1186;-39
2022/05/05 08:38:28;;;;;;;;;;;22.00;44.30;;;;;;482169;246;2204;-39
2022/05/05 08:40:29;;;;;;;;;;;22.00;44.40;;;;;;481739;246;1290;-39
2022/05/05 08:42:31;;;;;;;;;;;22.00;44.30;;;;;;481347;246;1202;-40
2022/05/05 08:44:32;;;;;;;;;;;22.00;44.30;;;;;;481200;246;1105;-39
2022/05/05 08:46:33;;;;;;;;;;;22.00;44.30;;;;;;481225;246;1215;-39
2022/05/05 08:48:35;;;;;;;;;;;22.00;44.30;;;;;;481324;246;1164;-40
2022/05/05 08:50:36;;;;;;;;;;;22.00;44.30;;;;;;481339;246;1187;-39
2022/05/05 08:52:37;;;;;;;;;;;22.00;44.40;;;;;;481349;246;1206;-39
2022/05/05 08:54:39;;;;;;;;;;;22.00;44.30;;;;;;481321;246;1106;-39
2022/05/05 08:56:40;;;;;;;;;;;22.00;44.30;;;;;;481309;246;1341;-40
2022/05/05 08:58:41;;;;;;;;;;;22.00;44.20;;;;;;481334;246;2193;-39
2022/05/05 09:00:42;;;;;;;;;;;22.10;44.30;;;;;;481286;246;1214;-39
2022/05/05 09:02:44;;;;;;;;;;;22.00;44.20;;;;;;481158;246;1155;-39
2022/05/05 09:04:45;;;;;;;;;;;22.00;44.30;;;;;;481227;246;1378;-39
2022/05/05 09:06:47;;;;;;;;;;;22.00;44.40;;;;;;481409;246;1411;-39
2022/05/05 09:08:48;;;;;;;;;;;22.00;44.30;;;;;;482018;246;1130;-39
2022/05/05 09:10:50;;;;;;;;;;;22.00;44.30;;;;;;481240;247;1363;-39
2022/05/05 09:12:51;;;;;;;;;;;22.00;44.30;;;;;;481213;247;2314;-39
2022/05/05 09:14:53;;;;;;;;;;;22.00;44.30;;;;;;480417;246;1058;-39
2022/05/05 09:16:53;;;;;;;;;;;22.00;44.30;;;;;;480193;247;1789;-40
2022/05/05 09:18:54;;;;;;;;;;;22.00;44.30;;;;;;480140;246;2181;-39
2022/05/05 09:20:56;;;;;;;;;;;22.00;44.30;;;;;;480481;246;1201;-39
2022/05/05 09:22:57;;;;;;;;;;;22.00;44.40;;;;;;480992;246;1077;-39
2022/05/05 09:25:01;;;;;;;;;;;22.00;44.30;;;;;;480503;246;1492;-40
2022/05/05 09:27:00;;;;;;;;;;;22.00;44.30;;;;;;479946;246;1534;-39
2022/05/05 09:29:01;;;;;;;;;;;22.00;44.30;;;;;;480136;246;1326;-39
2022/05/05 09:31:03;;;;;;;;;;;22.00;44.40;;;;;;480070;246;1293;-39
2022/05/05 09:33:04;;;;;;;;;;;22.00;44.40;;;;;;479951;246;1351;-39
2022/05/05 09:35:05;;;;;;;;;;;22.00;44.40;;;;;;480044;246;1154;-39
2022/05/05 09:37:07;;;;;;;;;;;22.00;44.40;;;;;;479959;246;1638;-40
2022/05/05 09:39:10;;;;;;;;;;;22.00;44.30;;;;;;479890;246;2172;-40
2022/05/05 09:41:11;;;;;;;;;;;22.00;44.20;;;;;;479754;247;1988;-39
2022/05/05 09:43:14;;;;;;;;;;;22.00;44.30;;;;;;479981;246;1373;-39
2022/05/05 09:45:16;;;;;;;;;;;21.90;44.50;;;;;;480034;247;1439;-39
2022/05/05 09:47:15;;;;;;;;;;;22.00;44.60;;;;;;479898;246;2408;-39
2022/05/05 09:49:17;;;;;;;;;;;22.00;44.50;;;;;;480128;246;1202;-39
2022/05/05 09:51:18;;;;;;;;;;;22.00;44.40;;;;;;479914;246;1245;-39
2022/05/05 09:58:00;;;;;;;;;;;22.10;44.20;;;;;;480917;247;2125;-39
2022/05/05 10:00:09;;;;;;;;;;;22.10;44.10;;;;;;481907;247;1955;-39
2022/05/05 10:02:04;;;;;;;;;;;22.20;44.20;;;;;;480720;247;2030;-39
2022/05/05 10:04:06;;;;;;;;;;;22.10;44.20;;;;;;479700;247;2120;-39
2022/05/05 10:06:07;;;;;;;;;;;22.20;44.20;;;;;;479847;246;1434;-39
2022/05/05 10:08:08;;;;;;;;;;;22.10;44.10;;;;;;480084;246;1207;-40
2022/05/05 10:10:09;;;;;;;;;;;22.10;44.20;;;;;;480210;246;1331;-40
2022/05/05 10:12:11;;;;;;;;;;;22.10;44.20;;;;;;480130;246;1387;-39
2022/05/05 10:14:12;;;;;;;;;;;22.10;44.20;;;;;;480038;246;1391;-40
2022/05/05 10:16:15;;;;;;;;;;;22.20;44.20;;;;;;481125;240;1239;-40
2022/05/05 10:18:16;;;;;;;;;;;22.20;44.10;;;;;;481073;246;2188;-39
2022/05/05 10:20:19;;;;;;;;;;;22.20;44.10;;;;;;480900;246;1110;-40
2022/05/05 10:22:19;;;;;;;;;;;22.30;44.00;;;;;;481222;246;1995;-39
2022/05/05 10:24:20;;;;;;;;;;;22.20;44.00;;;;;;481321;246;1313;-40
2022/05/05 10:26:22;;;;;;;;;;;22.20;44.00;;;;;;481272;246;1360;-39
2022/05/05 10:28:23;;;;;;;;;;;22.20;43.90;;;;;;481709;246;982;-39
2022/05/05 10:30:24;;;;;;;;;;;22.30;44.00;;;;;;482103;246;1135;-40
2022/05/05 10:32:26;;;;;;;;;;;22.30;44.00;;;;;;481729;246;1093;-39
2022/05/05 10:34:27;;;;;;;;;;;22.20;44.10;;;;;;481248;246;1154;-40
2022/05/05 10:36:28;;;;;;;;;;;22.20;44.00;;;;;;481205;246;1370;-39
2022/05/05 10:38:29;;;;;;;;;;;22.20;44.00;;;;;;481666;246;2188;-39
2022/05/05 10:40:31;;;;;;;;;;;22.20;44.00;;;;;;482114;246;891;-40
2022/05/05 10:42:33;;;;;;;;;;;22.20;44.00;;;;;;481668;246;1162;-40
2022/05/05 10:44:34;;;;;;;;;;;22.20;44.10;;;;;;481569;246;1464;-39
2022/05/05 10:46:35;;;;;;;;;;;22.20;44.00;;;;;;481257;246;1384;-39
2022/05/05 10:48:38;;;;;;;;;;;22.30;44.00;;;;;;481257;246;1145;-40
2022/05/05 10:50:39;;;;;;;;;;;22.20;44.00;;;;;;481199;247;2259;-39
2022/05/05 10:52:40;;;;;;;;;;;22.20;44.00;;;;;;481350;246;1282;-40
2022/05/05 10:54:41;;;;;;;;;;;22.20;44.10;;;;;;481325;246;1222;-40
2022/05/05 10:56:42;;;;;;;;;;;22.20;44.00;;;;;;481337;246;2206;-39
2022/05/05 10:58:44;;;;;;;;;;;22.30;44.00;;;;;;481345;246;2134;-39
2022/05/05 11:00:45;;;;;;;;;;;22.30;43.90;;;;;;481305;246;1115;-39
2022/05/05 11:02:46;;;;;;;;;;;22.30;43.90;;;;;;481390;246;1235;-40
2022/05/05 11:04:47;;;;;;;;;;;22.30;43.90;;;;;;481342;246;1177;-40
2022/05/05 11:06:49;;;;;;;;;;;22.30;44.00;;;;;;481409;246;1218;-39
2022/05/05 11:08:50;;;;;;;;;;;22.30;43.80;;;;;;481417;246;1166;-40
2022/05/05 11:11:39;;;;;;;;;;;22.30;43.90;;;;;;481369;246;1086;-40
2022/05/05 11:12:54;;;;;;;;;;;22.30;43.90;;;;;;480328;247;1819;-40
2022/05/05 11:21:53;;;;;;;;;;;22.30;43.80;;;;;;481556;247;1231;-40
2022/05/05 11:23:54;;;;;;;;;;;22.30;43.80;;;;;;481469;246;1149;-39
2022/05/05 11:25:55;;;;;;;;;;;22.30;43.90;;;;;;481216;246;1177;-39
2022/05/05 11:27:57;;;;;;;;;;;22.30;43.90;;;;;;481746;246;1106;-39
2022/05/05 11:29:59;;;;;;;;;;;22.30;44.00;;;;;;481369;246;1137;-39
2022/05/05 11:32:00;;;;;;;;;;;22.30;43.90;;;;;;481325;246;1250;-39
2022/05/05 11:34:01;;;;;;;;;;;22.30;43.80;;;;;;481231;246;1098;-40
2022/05/05 11:36:02;;;;;;;;;;;22.30;43.90;;;;;;481110;243;1236;-39
2022/05/05 11:38:03;;;;;;;;;;;22.30;43.90;;;;;;481527;246;2193;-40
2022/05/05 11:40:05;;;;;;;;;;;22.30;43.80;;;;;;481292;246;1266;-39
2022/05/05 11:42:06;;;;;;;;;;;22.30;43.90;;;;;;481280;246;1319;-39
2022/05/05 11:44:17;;;;;;;;;;;22.30;43.80;;;;;;481142;246;1130;-39
2022/05/05 11:46:18;;;;;;;;;;;22.40;43.80;;;;;;481033;246;2487;-40
2022/05/05 11:48:19;;;;;;;;;;;22.40;43.80;;;;;;481315;246;1151;-39
2022/05/05 11:50:21;;;;;;;;;;;22.40;43.70;;;;;;481284;246;1091;-40
2022/05/05 11:52:23;;;;;;;;;;;22.40;43.70;;;;;;481320;246;1206;-40
2022/05/05 11:54:24;;;;;;;;;;;22.40;43.80;;;;;;480990;246;1119;-39
2022/05/05 11:56:25;;;;;;;;;;;22.40;43.80;;;;;;481022;246;1158;-40
2022/05/05 12:03:08;;;;;;;;;;;22.40;43.70;;;;;;481278;247;1314;-40
2022/05/05 12:05:08;;;;;;;;;;;22.40;43.80;;;;;;481301;246;2172;-39
2022/05/05 12:07:10;;;;;;;;;;;22.40;43.70;;;;;;481314;246;1192;-40
2022/05/05 12:09:11;;;;;;;;;;;22.40;43.70;;;;;;480951;246;1136;-40
2022/05/05 12:11:12;;;;;;;;;;;22.40;43.70;;;;;;480865;246;1352;-40
2022/05/05 12:13:13;;;;;;;;;;;22.40;43.70;;;;;;481070;246;1309;-39
2022/05/05 12:15:16;;;;;;;;;;;22.40;43.70;;;;;;481145;246;1159;-40
2022/05/05 12:17:18;;;;;;;;;;;22.40;43.70;;;;;;480486;246;2119;-40
2022/05/05 12:19:19;;;;;;;;;;;22.40;43.60;;;;;;479768;246;2184;-39
2022/05/05 12:21:20;;;;;;;;;;;22.40;43.60;;;;;;479839;246;1498;-39
2022/05/05 12:23:21;;;;;;;;;;;22.40;43.60;;;;;;480312;246;1201;-40
2022/05/05 12:25:23;;;;;;;;;;;22.50;43.60;;;;;;480692;246;1341;-40
2022/05/05 12:27:25;;;;;;;;;;;22.40;43.50;;;;;;480289;246;2164;-40
2022/05/05 12:29:25;;;;;;;;;;;22.40;43.60;;;;;;480350;246;1757;-40
2022/05/05 12:31:28;;;;;;;;;;;22.30;43.70;;;;;;480817;246;1345;-39
2022/05/05 12:33:28;;;;;;;;;;;22.40;43.70;;;;;;480849;246;2166;-37